sensor_id;sensor_type;location;lat;lon;timestamp;P1;durP1;ratioP1;P2;durP2;ratioP2
6053;SDS011;3055;50.886;14.814;2022-07-04T00:01:41;6.20;;;5.70;;
6053;SDS011;3055;50.886;14.814;2022-07-04T00:04:08;5.47;;;4.97;;
6053;SDS011;3055;50.886;14.814;2022-07-04T00:06:35;6.43;;;5.83;;
6053;SDS011;3055;50.886;14.814;2022-07-04T00:09:03;5.67;;;5.17;;
6053;SDS011;3055;50.886;14.814;2022-07-04T00:11:30;6.20;;;5.70;;
6053;SDS011;3055;50.886;14.814;2022-07-04T00:13:57;6.67;;;6.07;;
6053;SDS011;3055;50.886;14.814;2022-07-04T00:16:24;6.27;;;5.77;;
6053;SDS011;3055;50.886;14.814;2022-07-04T00:18:51;6.90;;;6.13;;
6053;SDS011;3055;50.886;14.814;2022-07-04T00:21:18;6.30;;;5.70;;
6053;SDS011;3055;50.886;14.814;2022-07-04T00:23:45;6.67;;;6.07;;
6053;SDS011;3055;50.886;14.814;2022-07-04T00:26:15;6.10;;;5.60;;
6053;SDS011;3055;50.886;14.814;2022-07-04T00:28:42;5.80;;;5.30;;
6053;SDS011;3055;50.886;14.814;2022-07-04T00:31:09;6.00;;;5.50;;
6053;SDS011;3055;50.886;14.814;2022-07-04T00:33:36;5.70;;;5.23;;
6053;SDS011;3055;50.886;14.814;2022-07-04T00:36:03;5.87;;;5.27;;
6053;SDS011;3055;50.886;14.814;2022-07-04T00:38:30;5.87;;;5.23;;
6053;SDS011;3055;50.886;14.814;2022-07-04T00:40:57;5.63;;;5.20;;
6053;SDS011;3055;50.886;14.814;2022-07-04T00:43:26;5.17;;;4.77;;
6053;SDS011;3055;50.886;14.814;2022-07-04T00:45:54;5.23;;;4.83;;
6053;SDS011;3055;50.886;14.814;2022-07-04T00:48:21;5.40;;;4.97;;
6053;SDS011;3055;50.886;14.814;2022-07-04T00:50:49;5.80;;;5.20;;
6053;SDS011;3055;50.886;14.814;2022-07-04T00:53:17;5.40;;;4.90;;
6053;SDS011;3055;50.886;14.814;2022-07-04T00:55:47;4.60;;;4.30;;
6053;SDS011;3055;50.886;14.814;2022-07-04T00:58:15;5.00;;;3.97;;
6053;SDS011;3055;50.886;14.814;2022-07-04T01:00:48;4.53;;;4.13;;
6053;SDS011;3055;50.886;14.814;2022-07-04T01:03:15;3.93;;;3.63;;
6053;SDS011;3055;50.886;14.814;2022-07-04T01:05:42;3.93;;;3.63;;
6053;SDS011;3055;50.886;14.814;2022-07-04T01:08:11;3.50;;;3.17;;
6053;SDS011;3055;50.886;14.814;2022-07-04T01:10:38;4.77;;;3.50;;
6053;SDS011;3055;50.886;14.814;2022-07-04T01:13:05;3.33;;;3.13;;
6053;SDS011;3055;50.886;14.814;2022-07-04T01:15:32;3.90;;;3.57;;
6053;SDS011;3055;50.886;14.814;2022-07-04T01:18:00;3.27;;;2.97;;
6053;SDS011;3055;50.886;14.814;2022-07-04T01:20:34;3.87;;;2.97;;
6053;SDS011;3055;50.886;14.814;2022-07-04T01:23:01;3.20;;;3.00;;
6053;SDS011;3055;50.886;14.814;2022-07-04T01:25:28;4.80;;;3.20;;
6053;SDS011;3055;50.886;14.814;2022-07-04T01:27:55;3.30;;;3.10;;
6053;SDS011;3055;50.886;14.814;2022-07-04T01:30:23;3.20;;;3.00;;
6053;SDS011;3055;50.886;14.814;2022-07-04T01:32:50;3.50;;;3.20;;
6053;SDS011;3055;50.886;14.814;2022-07-04T01:35:18;3.20;;;3.00;;
6053;SDS011;3055;50.886;14.814;2022-07-04T01:37:46;3.30;;;3.00;;
6053;SDS011;3055;50.886;14.814;2022-07-04T01:40:13;2.90;;;2.70;;
6053;SDS011;3055;50.886;14.814;2022-07-04T01:42:40;3.30;;;3.10;;
6053;SDS011;3055;50.886;14.814;2022-07-04T01:45:07;5.60;;;2.93;;
6053;SDS011;3055;50.886;14.814;2022-07-04T01:47:36;3.33;;;3.10;;
6053;SDS011;3055;50.886;14.814;2022-07-04T01:50:04;2.97;;;2.77;;
6053;SDS011;3055;50.886;14.814;2022-07-04T01:52:32;2.97;;;2.77;;
6053;SDS011;3055;50.886;14.814;2022-07-04T01:55:01;3.13;;;2.60;;
6053;SDS011;3055;50.886;14.814;2022-07-04T01:57:28;3.20;;;2.90;;
6053;SDS011;3055;50.886;14.814;2022-07-04T01:59:55;3.30;;;3.00;;
6053;SDS011;3055;50.886;14.814;2022-07-04T02:02:39;3.17;;;2.97;;
6053;SDS011;3055;50.886;14.814;2022-07-04T02:05:06;3.30;;;3.00;;
6053;SDS011;3055;50.886;14.814;2022-07-04T02:07:33;3.40;;;3.10;;
6053;SDS011;3055;50.886;14.814;2022-07-04T02:10:02;3.70;;;3.40;;
6053;SDS011;3055;50.886;14.814;2022-07-04T02:12:30;3.30;;;3.10;;
6053;SDS011;3055;50.886;14.814;2022-07-04T02:15:14;3.67;;;3.27;;
6053;SDS011;3055;50.886;14.814;2022-07-04T02:17:41;3.17;;;2.97;;
6053;SDS011;3055;50.886;14.814;2022-07-04T02:20:09;3.77;;;3.47;;
6053;SDS011;3055;50.886;14.814;2022-07-04T02:22:36;3.47;;;3.17;;
6053;SDS011;3055;50.886;14.814;2022-07-04T02:25:05;3.60;;;3.30;;
6053;SDS011;3055;50.886;14.814;2022-07-04T02:27:33;3.90;;;3.60;;
6053;SDS011;3055;50.886;14.814;2022-07-04T02:30:00;3.93;;;3.63;;
6053;SDS011;3055;50.886;14.814;2022-07-04T02:32:27;3.60;;;3.30;;
6053;SDS011;3055;50.886;14.814;2022-07-04T02:34:54;3.87;;;3.57;;
6053;SDS011;3055;50.886;14.814;2022-07-04T02:37:21;3.53;;;3.23;;
6053;SDS011;3055;50.886;14.814;2022-07-04T02:39:48;3.60;;;3.40;;
6053;SDS011;3055;50.886;14.814;2022-07-04T02:42:16;5.03;;;4.17;;
6053;SDS011;3055;50.886;14.814;2022-07-04T02:44:44;5.17;;;3.73;;
6053;SDS011;3055;50.886;14.814;2022-07-04T02:47:11;3.70;;;3.40;;
6053;SDS011;3055;50.886;14.814;2022-07-04T02:49:38;4.03;;;3.73;;
6053;SDS011;3055;50.886;14.814;2022-07-04T02:52:05;4.27;;;3.87;;
6053;SDS011;3055;50.886;14.814;2022-07-04T02:54:32;4.03;;;3.73;;
6053;SDS011;3055;50.886;14.814;2022-07-04T02:56:59;4.03;;;3.73;;
6053;SDS011;3055;50.886;14.814;2022-07-04T02:59:27;4.17;;;3.87;;
6053;SDS011;3055;50.886;14.814;2022-07-04T03:01:54;4.40;;;3.90;;
6053;SDS011;3055;50.886;14.814;2022-07-04T03:04:21;4.23;;;3.93;;
6053;SDS011;3055;50.886;14.814;2022-07-04T03:06:48;3.63;;;3.43;;
6053;SDS011;3055;50.886;14.814;2022-07-04T03:09:15;4.53;;;4.13;;
6053;SDS011;3055;50.886;14.814;2022-07-04T03:11:42;4.20;;;3.73;;
6053;SDS011;3055;50.886;14.814;2022-07-04T03:14:10;4.33;;;3.90;;
6053;SDS011;3055;50.886;14.814;2022-07-04T03:16:38;4.20;;;3.80;;
6053;SDS011;3055;50.886;14.814;2022-07-04T03:19:05;3.83;;;3.60;;
6053;SDS011;3055;50.886;14.814;2022-07-04T03:21:32;4.50;;;4.10;;
6053;SDS011;3055;50.886;14.814;2022-07-04T03:23:59;3.90;;;3.63;;
6053;SDS011;3055;50.886;14.814;2022-07-04T03:26:26;3.47;;;3.23;;
6053;SDS011;3055;50.886;14.814;2022-07-04T03:28:55;3.80;;;3.57;;
6053;SDS011;3055;50.886;14.814;2022-07-04T03:31:23;3.90;;;3.60;;
6053;SDS011;3055;50.886;14.814;2022-07-04T03:33:52;4.53;;;3.57;;
6053;SDS011;3055;50.886;14.814;2022-07-04T03:36:19;3.27;;;3.07;;
6053;SDS011;3055;50.886;14.814;2022-07-04T03:38:46;3.93;;;3.60;;
6053;SDS011;3055;50.886;14.814;2022-07-04T03:41:13;4.17;;;3.80;;
6053;SDS011;3055;50.886;14.814;2022-07-04T03:43:40;3.97;;;3.67;;
6053;SDS011;3055;50.886;14.814;2022-07-04T03:46:07;3.77;;;3.20;;
6053;SDS011;3055;50.886;14.814;2022-07-04T03:48:34;4.67;;;3.50;;
6053;SDS011;3055;50.886;14.814;2022-07-04T03:51:03;3.60;;;3.30;;
6053;SDS011;3055;50.886;14.814;2022-07-04T03:53:30;4.03;;;3.30;;
6053;SDS011;3055;50.886;14.814;2022-07-04T03:55:57;3.13;;;2.80;;
6053;SDS011;3055;50.886;14.814;2022-07-04T03:58:24;4.13;;;2.47;;
6053;SDS011;3055;50.886;14.814;2022-07-04T04:00:51;3.47;;;2.43;;
6053;SDS011;3055;50.886;14.814;2022-07-04T04:03:17;2.53;;;2.30;;
6053;SDS011;3055;50.886;14.814;2022-07-04T04:06:03;2.90;;;2.70;;
6053;SDS011;3055;50.886;14.814;2022-07-04T04:08:30;4.03;;;2.57;;
6053;SDS011;3055;50.886;14.814;2022-07-04T04:10:57;3.03;;;2.70;;
6053;SDS011;3055;50.886;14.814;2022-07-04T04:13:24;2.80;;;2.60;;
6053;SDS011;3055;50.886;14.814;2022-07-04T04:15:51;2.50;;;2.30;;
6053;SDS011;3055;50.886;14.814;2022-07-04T04:18:18;3.13;;;2.73;;
6053;SDS011;3055;50.886;14.814;2022-07-04T04:20:45;3.50;;;2.40;;
6053;SDS011;3055;50.886;14.814;2022-07-04T04:23:13;2.93;;;2.73;;
6053;SDS011;3055;50.886;14.814;2022-07-04T04:25:40;2.33;;;2.10;;
6053;SDS011;3055;50.886;14.814;2022-07-04T04:28:07;2.20;;;2.10;;
6053;SDS011;3055;50.886;14.814;2022-07-04T04:30:34;2.23;;;2.03;;
6053;SDS011;3055;50.886;14.814;2022-07-04T04:33:01;5.50;;;2.37;;
6053;SDS011;3055;50.886;14.814;2022-07-04T04:35:28;2.50;;;2.30;;
6053;SDS011;3055;50.886;14.814;2022-07-04T04:37:55;2.00;;;1.90;;
6053;SDS011;3055;50.886;14.814;2022-07-04T04:40:23;3.73;;;1.90;;
6053;SDS011;3055;50.886;14.814;2022-07-04T04:42:50;2.07;;;1.87;;
6053;SDS011;3055;50.886;14.814;2022-07-04T04:45:17;2.03;;;1.83;;
6053;SDS011;3055;50.886;14.814;2022-07-04T04:47:44;2.53;;;2.07;;
6053;SDS011;3055;50.886;14.814;2022-07-04T04:50:11;2.07;;;1.50;;
6053;SDS011;3055;50.886;14.814;2022-07-04T04:52:39;2.77;;;1.80;;
6053;SDS011;3055;50.886;14.814;2022-07-04T04:55:07;2.57;;;1.80;;
6053;SDS011;3055;50.886;14.814;2022-07-04T04:57:35;2.60;;;1.50;;
6053;SDS011;3055;50.886;14.814;2022-07-04T05:00:03;2.03;;;1.90;;
6053;SDS011;3055;50.886;14.814;2022-07-04T05:02:31;1.93;;;1.60;;
6053;SDS011;3055;50.886;14.814;2022-07-04T05:04:58;2.17;;;1.60;;
6053;SDS011;3055;50.886;14.814;2022-07-04T05:07:25;2.00;;;1.80;;
6053;SDS011;3055;50.886;14.814;2022-07-04T05:09:51;1.80;;;1.70;;
6053;SDS011;3055;50.886;14.814;2022-07-04T05:12:23;2.13;;;1.73;;
6053;SDS011;3055;50.886;14.814;2022-07-04T05:14:51;1.67;;;1.53;;
6053;SDS011;3055;50.886;14.814;2022-07-04T05:17:18;2.37;;;1.90;;
6053;SDS011;3055;50.886;14.814;2022-07-04T05:19:45;1.77;;;1.67;;
6053;SDS011;3055;50.886;14.814;2022-07-04T05:22:13;3.70;;;1.87;;
6053;SDS011;3055;50.886;14.814;2022-07-04T05:24:40;3.43;;;1.63;;
6053;SDS011;3055;50.886;14.814;2022-07-04T05:27:07;3.27;;;1.90;;
6053;SDS011;3055;50.886;14.814;2022-07-04T05:29:34;3.10;;;1.70;;
6053;SDS011;3055;50.886;14.814;2022-07-04T05:32:04;3.50;;;1.90;;
6053;SDS011;3055;50.886;14.814;2022-07-04T05:34:31;3.07;;;1.90;;
6053;SDS011;3055;50.886;14.814;2022-07-04T05:36:58;1.70;;;1.47;;
6053;SDS011;3055;50.886;14.814;2022-07-04T05:39:25;2.97;;;1.73;;
6053;SDS011;3055;50.886;14.814;2022-07-04T05:41:52;2.97;;;1.57;;
6053;SDS011;3055;50.886;14.814;2022-07-04T05:44:19;1.80;;;1.70;;
6053;SDS011;3055;50.886;14.814;2022-07-04T05:46:46;3.90;;;1.83;;
6053;SDS011;3055;50.886;14.814;2022-07-04T05:49:14;7.70;;;2.10;;
6053;SDS011;3055;50.886;14.814;2022-07-04T05:51:41;3.20;;;1.70;;
6053;SDS011;3055;50.886;14.814;2022-07-04T05:54:08;2.30;;;1.80;;
6053;SDS011;3055;50.886;14.814;2022-07-04T05:56:35;1.90;;;1.80;;
6053;SDS011;3055;50.886;14.814;2022-07-04T05:59:03;2.20;;;1.70;;
6053;SDS011;3055;50.886;14.814;2022-07-04T06:01:30;2.30;;;1.90;;
6053;SDS011;3055;50.886;14.814;2022-07-04T06:03:57;4.20;;;1.90;;
6053;SDS011;3055;50.886;14.814;2022-07-04T06:06:25;2.90;;;1.87;;
6053;SDS011;3055;50.886;14.814;2022-07-04T06:08:52;3.17;;;1.73;;
6053;SDS011;3055;50.886;14.814;2022-07-04T06:11:18;1.73;;;1.60;;
6053;SDS011;3055;50.886;14.814;2022-07-04T06:13:45;5.33;;;2.20;;
6053;SDS011;3055;50.886;14.814;2022-07-04T06:16:13;2.10;;;2.00;;
6053;SDS011;3055;50.886;14.814;2022-07-04T06:18:39;2.20;;;1.77;;
6053;SDS011;3055;50.886;14.814;2022-07-04T06:21:06;5.43;;;2.30;;
6053;SDS011;3055;50.886;14.814;2022-07-04T06:23:35;3.00;;;1.80;;
6053;SDS011;3055;50.886;14.814;2022-07-04T06:26:02;4.30;;;2.20;;
6053;SDS011;3055;50.886;14.814;2022-07-04T06:28:30;2.10;;;1.83;;
6053;SDS011;3055;50.886;14.814;2022-07-04T06:30:57;2.27;;;1.80;;
6053;SDS011;3055;50.886;14.814;2022-07-04T06:33:24;2.80;;;1.77;;
6053;SDS011;3055;50.886;14.814;2022-07-04T06:35:53;2.00;;;1.90;;
6053;SDS011;3055;50.886;14.814;2022-07-04T06:38:20;2.73;;;2.10;;
6053;SDS011;3055;50.886;14.814;2022-07-04T06:40:50;2.00;;;1.90;;
6053;SDS011;3055;50.886;14.814;2022-07-04T06:43:19;4.80;;;1.90;;
6053;SDS011;3055;50.886;14.814;2022-07-04T06:45:46;3.70;;;1.63;;
6053;SDS011;3055;50.886;14.814;2022-07-04T06:48:13;1.73;;;1.63;;
6053;SDS011;3055;50.886;14.814;2022-07-04T06:50:40;3.87;;;2.13;;
6053;SDS011;3055;50.886;14.814;2022-07-04T06:53:08;3.17;;;2.00;;
6053;SDS011;3055;50.886;14.814;2022-07-04T06:55:36;2.67;;;1.83;;
6053;SDS011;3055;50.886;14.814;2022-07-04T06:58:05;2.13;;;1.53;;
6053;SDS011;3055;50.886;14.814;2022-07-04T07:00:33;2.73;;;2.00;;
6053;SDS011;3055;50.886;14.814;2022-07-04T07:03:01;3.53;;;1.90;;
6053;SDS011;3055;50.886;14.814;2022-07-04T07:05:28;2.30;;;1.97;;
6053;SDS011;3055;50.886;14.814;2022-07-04T07:07:55;4.83;;;2.63;;
6053;SDS011;3055;50.886;14.814;2022-07-04T07:10:22;3.53;;;2.00;;
6053;SDS011;3055;50.886;14.814;2022-07-04T07:12:49;4.83;;;1.90;;
6053;SDS011;3055;50.886;14.814;2022-07-04T07:15:18;3.17;;;1.90;;
6053;SDS011;3055;50.886;14.814;2022-07-04T07:17:45;1.80;;;1.70;;
6053;SDS011;3055;50.886;14.814;2022-07-04T07:20:12;1.90;;;1.63;;
6053;SDS011;3055;50.886;14.814;2022-07-04T07:22:39;2.47;;;2.10;;
6053;SDS011;3055;50.886;14.814;2022-07-04T07:25:07;3.40;;;1.93;;
6053;SDS011;3055;50.886;14.814;2022-07-04T07:27:35;2.37;;;1.80;;
6053;SDS011;3055;50.886;14.814;2022-07-04T07:30:02;3.40;;;2.00;;
6053;SDS011;3055;50.886;14.814;2022-07-04T07:32:33;3.97;;;2.87;;
6053;SDS011;3055;50.886;14.814;2022-07-04T07:35:00;2.70;;;1.90;;
6053;SDS011;3055;50.886;14.814;2022-07-04T07:37:28;2.63;;;1.73;;
6053;SDS011;3055;50.886;14.814;2022-07-04T07:39:55;3.40;;;2.20;;
6053;SDS011;3055;50.886;14.814;2022-07-04T07:42:22;5.07;;;2.37;;
6053;SDS011;3055;50.886;14.814;2022-07-04T07:44:50;13.33;;;5.13;;
6053;SDS011;3055;50.886;14.814;2022-07-04T07:47:17;4.87;;;2.87;;
6053;SDS011;3055;50.886;14.814;2022-07-04T07:49:45;3.67;;;2.10;;
6053;SDS011;3055;50.886;14.814;2022-07-04T07:52:13;2.97;;;1.60;;
6053;SDS011;3055;50.886;14.814;2022-07-04T07:54:40;2.00;;;1.67;;
6053;SDS011;3055;50.886;14.814;2022-07-04T07:57:07;1.60;;;1.50;;
6053;SDS011;3055;50.886;14.814;2022-07-04T07:59:34;3.37;;;1.70;;
6053;SDS011;3055;50.886;14.814;2022-07-04T08:02:01;1.43;;;1.33;;
6053;SDS011;3055;50.886;14.814;2022-07-04T08:04:29;2.20;;;1.60;;
6053;SDS011;3055;50.886;14.814;2022-07-04T08:07:04;3.83;;;1.83;;
6053;SDS011;3055;50.886;14.814;2022-07-04T08:09:32;2.80;;;1.80;;
6053;SDS011;3055;50.886;14.814;2022-07-04T08:11:59;2.43;;;1.50;;
6053;SDS011;3055;50.886;14.814;2022-07-04T08:14:27;1.47;;;1.23;;
6053;SDS011;3055;50.886;14.814;2022-07-04T08:16:55;3.13;;;1.50;;
6053;SDS011;3055;50.886;14.814;2022-07-04T08:19:22;1.50;;;1.40;;
6053;SDS011;3055;50.886;14.814;2022-07-04T08:21:50;1.93;;;1.50;;
6053;SDS011;3055;50.886;14.814;2022-07-04T08:24:18;1.50;;;1.40;;
6053;SDS011;3055;50.886;14.814;2022-07-04T08:26:46;2.70;;;1.30;;
6053;SDS011;3055;50.886;14.814;2022-07-04T08:29:14;2.27;;;1.43;;
6053;SDS011;3055;50.886;14.814;2022-07-04T08:31:44;1.70;;;1.57;;
6053;SDS011;3055;50.886;14.814;2022-07-04T08:34:11;4.53;;;1.70;;
6053;SDS011;3055;50.886;14.814;2022-07-04T08:36:38;1.37;;;1.27;;
6053;SDS011;3055;50.886;14.814;2022-07-04T08:39:05;1.93;;;1.60;;
6053;SDS011;3055;50.886;14.814;2022-07-04T08:41:35;3.47;;;1.33;;
6053;SDS011;3055;50.886;14.814;2022-07-04T08:44:06;2.10;;;1.40;;
6053;SDS011;3055;50.886;14.814;2022-07-04T08:46:36;2.43;;;1.40;;
6053;SDS011;3055;50.886;14.814;2022-07-04T08:49:06;3.47;;;1.53;;
6053;SDS011;3055;50.886;14.814;2022-07-04T08:51:38;2.83;;;1.70;;
6053;SDS011;3055;50.886;14.814;2022-07-04T08:54:13;3.93;;;3.60;;
6053;SDS011;3055;50.886;14.814;2022-07-04T08:57:00;2.73;;;1.50;;
6053;SDS011;3055;50.886;14.814;2022-07-04T08:59:44;3.30;;;1.30;;
6053;SDS011;3055;50.886;14.814;2022-07-04T09:02:16;1.57;;;1.30;;
6053;SDS011;3055;50.886;14.814;2022-07-04T09:04:44;2.40;;;1.50;;
6053;SDS011;3055;50.886;14.814;2022-07-04T09:07:12;1.83;;;1.30;;
6053;SDS011;3055;50.886;14.814;2022-07-04T09:09:40;1.93;;;1.30;;
6053;SDS011;3055;50.886;14.814;2022-07-04T09:12:09;3.60;;;1.20;;
6053;SDS011;3055;50.886;14.814;2022-07-04T09:14:36;1.93;;;1.27;;
6053;SDS011;3055;50.886;14.814;2022-07-04T09:17:03;2.03;;;1.47;;
6053;SDS011;3055;50.886;14.814;2022-07-04T09:19:31;2.17;;;1.30;;
6053;SDS011;3055;50.886;14.814;2022-07-04T09:22:01;2.10;;;1.20;;
6053;SDS011;3055;50.886;14.814;2022-07-04T09:24:46;4.43;;;1.30;;
6053;SDS011;3055;50.886;14.814;2022-07-04T09:29:59;2.43;;;1.37;;
6053;SDS011;3055;50.886;14.814;2022-07-04T09:32:33;1.50;;;1.10;;
6053;SDS011;3055;50.886;14.814;2022-07-04T09:35:01;2.83;;;1.40;;
6053;SDS011;3055;50.886;14.814;2022-07-04T09:37:33;1.57;;;1.30;;
6053;SDS011;3055;50.886;14.814;2022-07-04T09:40:02;3.30;;;1.40;;
6053;SDS011;3055;50.886;14.814;2022-07-04T09:42:41;1.90;;;1.10;;
6053;SDS011;3055;50.886;14.814;2022-07-04T09:45:09;1.90;;;1.53;;
6053;SDS011;3055;50.886;14.814;2022-07-04T09:47:37;2.20;;;1.17;;
6053;SDS011;3055;50.886;14.814;2022-07-04T09:50:07;2.83;;;1.20;;
6053;SDS011;3055;50.886;14.814;2022-07-04T09:52:48;1.50;;;1.23;;
6053;SDS011;3055;50.886;14.814;2022-07-04T09:55:20;1.63;;;1.13;;
6053;SDS011;3055;50.886;14.814;2022-07-04T09:57:55;1.40;;;0.97;;
6053;SDS011;3055;50.886;14.814;2022-07-04T10:00:25;3.30;;;1.30;;
6053;SDS011;3055;50.886;14.814;2022-07-04T10:02:53;2.77;;;1.33;;
6053;SDS011;3055;50.886;14.814;2022-07-04T10:05:22;1.73;;;1.20;;
6053;SDS011;3055;50.886;14.814;2022-07-04T10:07:51;2.50;;;1.13;;
6053;SDS011;3055;50.886;14.814;2022-07-04T10:10:27;1.27;;;1.17;;
6053;SDS011;3055;50.886;14.814;2022-07-04T10:12:58;1.23;;;1.13;;
6053;SDS011;3055;50.886;14.814;2022-07-04T10:15:27;1.40;;;1.03;;
6053;SDS011;3055;50.886;14.814;2022-07-04T10:17:54;3.27;;;1.53;;
6053;SDS011;3055;50.886;14.814;2022-07-04T10:20:21;1.17;;;0.97;;
6053;SDS011;3055;50.886;14.814;2022-07-04T10:22:48;2.70;;;1.40;;
6053;SDS011;3055;50.886;14.814;2022-07-04T10:25:15;3.20;;;1.30;;
6053;SDS011;3055;50.886;14.814;2022-07-04T10:27:42;1.27;;;1.17;;
6053;SDS011;3055;50.886;14.814;2022-07-04T10:30:12;1.60;;;1.20;;
6053;SDS011;3055;50.886;14.814;2022-07-04T10:32:41;1.83;;;1.20;;
6053;SDS011;3055;50.886;14.814;2022-07-04T10:35:12;2.53;;;1.40;;
6053;SDS011;3055;50.886;14.814;2022-07-04T10:37:59;1.77;;;1.20;;
6053;SDS011;3055;50.886;14.814;2022-07-04T10:40:40;1.70;;;1.23;;
6053;SDS011;3055;50.886;14.814;2022-07-04T10:46:34;3.03;;;1.10;;
6053;SDS011;3055;50.886;14.814;2022-07-04T10:49:04;2.17;;;1.10;;
6053;SDS011;3055;50.886;14.814;2022-07-04T10:51:36;1.90;;;1.40;;
6053;SDS011;3055;50.886;14.814;2022-07-04T10:54:07;1.33;;;1.20;;
6053;SDS011;3055;50.886;14.814;2022-07-04T10:56:36;1.63;;;1.23;;
6053;SDS011;3055;50.886;14.814;2022-07-04T10:59:08;2.97;;;1.67;;
6053;SDS011;3055;50.886;14.814;2022-07-04T11:01:38;2.70;;;1.20;;
6053;SDS011;3055;50.886;14.814;2022-07-04T11:04:05;1.27;;;1.00;;
6053;SDS011;3055;50.886;14.814;2022-07-04T11:09:19;3.60;;;1.33;;
6053;SDS011;3055;50.886;14.814;2022-07-04T11:11:48;1.40;;;1.30;;
6053;SDS011;3055;50.886;14.814;2022-07-04T11:14:30;1.10;;;1.00;;
6053;SDS011;3055;50.886;14.814;2022-07-04T11:17:03;1.80;;;1.27;;
6053;SDS011;3055;50.886;14.814;2022-07-04T11:19:30;2.17;;;1.10;;
6053;SDS011;3055;50.886;14.814;2022-07-04T11:21:57;2.03;;;1.70;;
6053;SDS011;3055;50.886;14.814;2022-07-04T11:24:25;5.00;;;1.53;;
6053;SDS011;3055;50.886;14.814;2022-07-04T11:26:52;1.63;;;1.23;;
6053;SDS011;3055;50.886;14.814;2022-07-04T11:29:19;4.27;;;1.33;;
6053;SDS011;3055;50.886;14.814;2022-07-04T11:31:47;2.30;;;1.40;;
6053;SDS011;3055;50.886;14.814;2022-07-04T11:34:16;3.03;;;1.30;;
6053;SDS011;3055;50.886;14.814;2022-07-04T11:36:45;2.67;;;1.30;;
6053;SDS011;3055;50.886;14.814;2022-07-04T11:39:13;2.73;;;1.20;;
6053;SDS011;3055;50.886;14.814;2022-07-04T11:41:44;2.53;;;1.20;;
6053;SDS011;3055;50.886;14.814;2022-07-04T11:44:31;2.37;;;1.20;;
6053;SDS011;3055;50.886;14.814;2022-07-04T11:47:18;2.00;;;1.00;;
6053;SDS011;3055;50.886;14.814;2022-07-04T11:49:48;4.30;;;1.00;;
6053;SDS011;3055;50.886;14.814;2022-07-04T11:52:18;3.00;;;1.23;;
6053;SDS011;3055;50.886;14.814;2022-07-04T11:54:47;2.20;;;1.47;;
6053;SDS011;3055;50.886;14.814;2022-07-04T11:57:16;2.00;;;1.77;;
6053;SDS011;3055;50.886;14.814;2022-07-04T11:59:51;4.37;;;1.37;;
6053;SDS011;3055;50.886;14.814;2022-07-04T12:02:20;1.40;;;1.30;;
6053;SDS011;3055;50.886;14.814;2022-07-04T12:04:49;4.30;;;1.50;;
6053;SDS011;3055;50.886;14.814;2022-07-04T12:07:16;1.97;;;1.37;;
6053;SDS011;3055;50.886;14.814;2022-07-04T12:09:45;2.67;;;1.40;;
6053;SDS011;3055;50.886;14.814;2022-07-04T12:12:13;2.57;;;1.70;;
6053;SDS011;3055;50.886;14.814;2022-07-04T12:14:55;1.33;;;1.23;;
6053;SDS011;3055;50.886;14.814;2022-07-04T12:17:28;1.37;;;1.20;;
6053;SDS011;3055;50.886;14.814;2022-07-04T12:19:58;1.90;;;1.63;;
6053;SDS011;3055;50.886;14.814;2022-07-04T12:22:35;1.57;;;1.23;;
6053;SDS011;3055;50.886;14.814;2022-07-04T12:25:05;1.83;;;1.60;;
6053;SDS011;3055;50.886;14.814;2022-07-04T12:27:35;3.43;;;1.27;;
6053;SDS011;3055;50.886;14.814;2022-07-04T12:30:03;2.93;;;1.37;;
6053;SDS011;3055;50.886;14.814;2022-07-04T12:32:44;1.93;;;1.27;;
6053;SDS011;3055;50.886;14.814;2022-07-04T12:38:07;2.20;;;1.30;;
6053;SDS011;3055;50.886;14.814;2022-07-04T12:40:35;2.73;;;1.33;;
6053;SDS011;3055;50.886;14.814;2022-07-04T12:43:03;2.07;;;1.40;;
6053;SDS011;3055;50.886;14.814;2022-07-04T12:45:43;3.33;;;1.50;;
6053;SDS011;3055;50.886;14.814;2022-07-04T12:48:18;1.60;;;1.50;;
6053;SDS011;3055;50.886;14.814;2022-07-04T12:50:49;3.07;;;1.80;;
6053;SDS011;3055;50.886;14.814;2022-07-04T12:53:16;1.83;;;1.43;;
6053;SDS011;3055;50.886;14.814;2022-07-04T12:55:44;2.00;;;1.30;;
6053;SDS011;3055;50.886;14.814;2022-07-04T12:58:12;2.93;;;1.37;;
6053;SDS011;3055;50.886;14.814;2022-07-04T13:00:40;1.70;;;1.40;;
6053;SDS011;3055;50.886;14.814;2022-07-04T13:03:07;2.00;;;1.53;;
6053;SDS011;3055;50.886;14.814;2022-07-04T13:05:34;3.30;;;1.33;;
6053;SDS011;3055;50.886;14.814;2022-07-04T13:08:04;2.43;;;1.30;;
6053;SDS011;3055;50.886;14.814;2022-07-04T13:10:31;2.80;;;1.20;;
6053;SDS011;3055;50.886;14.814;2022-07-04T13:12:59;1.50;;;1.40;;
6053;SDS011;3055;50.886;14.814;2022-07-04T13:15:26;1.83;;;1.67;;
6053;SDS011;3055;50.886;14.814;2022-07-04T13:17:53;1.60;;;1.27;;
6053;SDS011;3055;50.886;14.814;2022-07-04T13:20:20;1.83;;;1.40;;
6053;SDS011;3055;50.886;14.814;2022-07-04T13:22:49;1.90;;;1.47;;
6053;SDS011;3055;50.886;14.814;2022-07-04T13:25:18;1.97;;;1.60;;
6053;SDS011;3055;50.886;14.814;2022-07-04T13:27:45;4.47;;;1.57;;
6053;SDS011;3055;50.886;14.814;2022-07-04T13:30:12;3.83;;;1.40;;
6053;SDS011;3055;50.886;14.814;2022-07-04T13:32:39;4.00;;;1.50;;
6053;SDS011;3055;50.886;14.814;2022-07-04T13:35:06;1.87;;;1.47;;
6053;SDS011;3055;50.886;14.814;2022-07-04T13:37:34;2.20;;;1.50;;
6053;SDS011;3055;50.886;14.814;2022-07-04T13:40:01;3.63;;;1.63;;
6053;SDS011;3055;50.886;14.814;2022-07-04T13:42:29;1.73;;;1.50;;
6053;SDS011;3055;50.886;14.814;2022-07-04T13:45:14;3.47;;;2.10;;
6053;SDS011;3055;50.886;14.814;2022-07-04T13:47:43;3.00;;;1.80;;
6053;SDS011;3055;50.886;14.814;2022-07-04T13:50:10;1.70;;;1.60;;
6053;SDS011;3055;50.886;14.814;2022-07-04T13:52:37;2.80;;;1.47;;
6053;SDS011;3055;50.886;14.814;2022-07-04T13:55:04;2.13;;;1.53;;
6053;SDS011;3055;50.886;14.814;2022-07-04T13:57:33;2.13;;;1.50;;
6053;SDS011;3055;50.886;14.814;2022-07-04T13:59:59;2.97;;;1.53;;
6053;SDS011;3055;50.886;14.814;2022-07-04T14:02:26;2.13;;;1.67;;
6053;SDS011;3055;50.886;14.814;2022-07-04T14:04:53;3.80;;;1.47;;
6053;SDS011;3055;50.886;14.814;2022-07-04T14:07:20;3.23;;;1.77;;
6053;SDS011;3055;50.886;14.814;2022-07-04T14:09:47;2.17;;;1.70;;
6053;SDS011;3055;50.886;14.814;2022-07-04T14:12:14;4.67;;;1.90;;
6053;SDS011;3055;50.886;14.814;2022-07-04T14:14:43;3.00;;;1.87;;
6053;SDS011;3055;50.886;14.814;2022-07-04T14:17:11;2.80;;;1.70;;
6053;SDS011;3055;50.886;14.814;2022-07-04T14:19:38;2.07;;;1.90;;
6053;SDS011;3055;50.886;14.814;2022-07-04T14:22:04;2.40;;;1.70;;
6053;SDS011;3055;50.886;14.814;2022-07-04T14:24:31;2.90;;;1.87;;
6053;SDS011;3055;50.886;14.814;2022-07-04T14:26:58;3.43;;;2.07;;
6053;SDS011;3055;50.886;14.814;2022-07-04T14:29:25;2.40;;;1.90;;
6053;SDS011;3055;50.886;14.814;2022-07-04T14:31:54;3.77;;;1.90;;
6053;SDS011;3055;50.886;14.814;2022-07-04T14:34:20;2.27;;;2.03;;
6053;SDS011;3055;50.886;14.814;2022-07-04T14:36:48;6.87;;;2.57;;
6053;SDS011;3055;50.886;14.814;2022-07-04T14:39:15;2.50;;;2.27;;
6053;SDS011;3055;50.886;14.814;2022-07-04T14:41:42;2.30;;;2.10;;
6053;SDS011;3055;50.886;14.814;2022-07-04T14:44:09;2.90;;;2.13;;
6053;SDS011;3055;50.886;14.814;2022-07-04T14:46:36;5.13;;;3.40;;
6053;SDS011;3055;50.886;14.814;2022-07-04T14:49:04;5.87;;;2.40;;
6053;SDS011;3055;50.886;14.814;2022-07-04T14:51:31;4.57;;;2.00;;
6053;SDS011;3055;50.886;14.814;2022-07-04T14:53:58;3.00;;;2.20;;
6053;SDS011;3055;50.886;14.814;2022-07-04T14:56:25;2.53;;;2.10;;
6053;SDS011;3055;50.886;14.814;2022-07-04T14:58:52;2.37;;;2.17;;
6053;SDS011;3055;50.886;14.814;2022-07-04T15:01:19;4.63;;;2.37;;
6053;SDS011;3055;50.886;14.814;2022-07-04T15:03:46;2.60;;;1.90;;
6053;SDS011;3055;50.886;14.814;2022-07-04T15:06:14;3.20;;;2.23;;
6053;SDS011;3055;50.886;14.814;2022-07-04T15:08:41;4.23;;;1.90;;
6053;SDS011;3055;50.886;14.814;2022-07-04T15:11:08;4.20;;;2.20;;
6053;SDS011;3055;50.886;14.814;2022-07-04T15:13:35;2.97;;;1.97;;
6053;SDS011;3055;50.886;14.814;2022-07-04T15:16:02;3.57;;;1.90;;
6053;SDS011;3055;50.886;14.814;2022-07-04T15:18:29;2.40;;;2.10;;
6053;SDS011;3055;50.886;14.814;2022-07-04T15:20:56;4.73;;;1.90;;